• Join FlightAware (Why Join?)
  • Login
  • US Flag 
03:37PM EDT


 

Airport Tracker/Info


-or-


 

Live Flight TrackerFlight Track Log ✈ EJA929 ✈ 31-Jul-2013 ✈ KISN - KAUS

Flight Track Log - Related Links

Times and Time Zones

All times are in EDT time to prevent confusion due to time zone crossing. See the EJA929 flight status page for this flight to view local times or setup timezone preferences in your user account.

Time Position Orientation Groundspeed Altitude Reporting Facility
EDT Latitude Longitude Course Direction KTS MPH feet Rate Location/Type
03:26PM 48.1917 -103.6686 155° Southeast 161 185 2,900  Level Salt Lake Center
03:27PM 48.2131 -103.7325 297° West 203 234 6,200 3,180 Climbing Salt Lake Center
03:28PM 48.1506 -103.7097 166° South 239 275 9,500 2,520 Climbing Salt Lake Center
03:29PM 47.3879 -103.1378 146° Southeast  Level FlightAware Approximate
03:29PM 48.0883 -103.6317 140° Southeast 270 311 11,500  Level Salt Lake Center
03:30PM 47.2702 -103.0518 161° South  Level FlightAware Approximate
03:30PM 48.0039 -103.5708 154° Southeast 307 353 13,000  Level Salt Lake Center
03:31PM 47.1503 -102.9685 155° Southeast  Level FlightAware Approximate
03:31PM 47.9081 -103.5025 154° Southeast 345 397 14,500  Level Salt Lake Center
03:32PM 47.8061 -103.4306 155° Southeast 376 433 16,100 1,560 Climbing Salt Lake Center
03:33PM 47.7008 -103.3567 155° Southeast 397 457 17,800 1,560 Climbing Salt Lake Center
03:34PM 47.5944 -103.2806 154° Southeast 411 473 19,400 1,560 Climbing Salt Lake Center
03:35PM 47.4858 -103.2044 155° Southeast 420 483 21,100 1,740 Climbing Salt Lake Center
03:36PM 47.3536 -103.1103 154° Southeast 430 495 23,100 1,740 Climbing Salt Lake Center
03:37PM 47.2414 -103.0328 155° Southeast 446 513 24,800 1,620 Climbing Minneapolis Center
03:38PM 47.1239 -102.9525 155° Southeast 460 529 26,500 1,620 Climbing Minneapolis Center
03:39PM 47.0050 -102.8694 155° Southeast 469 540 28,200 1,620 Climbing Minneapolis Center
03:40PM 46.8564 -102.7694 155° Southeast 485 558 30,300 1,620 Climbing Minneapolis Center
03:41PM 46.7022 -102.6731 157° South 499 574 32,000 1,560 Climbing Minneapolis Center
03:42PM 46.5678 -102.5953 158° South 512 589 33,600 1,560 Climbing Minneapolis Center
03:43PM 46.4328 -102.5133 157° South 523 602 35,300 1,620 Climbing Minneapolis Center
03:45PM 46.2975 -102.4325 158° South 526 605 37,000 1,680 Climbing Minneapolis Center
03:46PM 46.1631 -102.3539 158° South 525 604 38,800 1,740 Climbing Minneapolis Center
03:47PM 46.0106 -102.2622 157° South 515 593 40,700 1,020 Climbing Minneapolis Center
03:48PM 45.8822 -102.1842 157° South 506 582 41,000 120 Climbing Minneapolis Center
03:49PM 45.7458 -102.1044 158° South 520 598 41,000  Level Minneapolis Center
03:50PM 45.6053 -102.0219 158° South 537 618 41,000  Level Minneapolis Center
03:51PM 45.4622 -101.9381 158° South 551 634 41,000  Level Minneapolis Center
03:52PM 45.2894 -101.8381 158° South 558 642 41,000  Level Minneapolis Center
03:53PM 45.1450 -101.7553 158° South 560 644 41,000  Level Minneapolis Center
03:54PM 44.9964 -101.7011 166° South 556 640 41,000  Level Minneapolis Center
03:55PM 44.8489 -101.6733 172° South 541 623 41,000  Level Minneapolis Center
03:56PM 44.7003 -101.6469 173° South 541 623 41,000  Level Minneapolis Center
03:57PM 44.5528 -101.6200 173° South 540 621 41,000  Level Denver Center
03:58PM 44.4067 -101.5936 173° South 534 615 41,000  Level Denver Center
03:59PM 44.2581 -101.5647 172° South 538 619 41,000  Level Denver Center
04:00PM 44.0814 -101.5353 173° South 536 617 41,000  Level Minneapolis Center
04:01PM 43.9331 -101.5078 172° South 537 618 41,000  Level Minneapolis Center
04:02PM 43.7856 -101.4825 173° South 537 618 41,000  Level Minneapolis Center
04:03PM 43.6067 -101.4517 173° South 540 621 41,000  Level Minneapolis Center
04:04PM 43.4569 -101.4250 173° South 542 624 41,000  Level Minneapolis Center
04:05PM 43.3064 -101.4000 173° South 543 625 41,000  Level Minneapolis Center
04:06PM 43.1547 -101.3733 173° South 549 632 41,000  Level Minneapolis Center
04:07PM 43.0036 -101.3458 172° South 549 632 41,000  Level Minneapolis Center
04:08PM 42.8539 -101.3200 173° South 545 627 41,000  Level Minneapolis Center
04:09PM 42.6742 -101.2897 173° South 546 628 41,000  Level Minneapolis Center
04:10PM 42.5250 -101.2628 172° South 544 626 41,000  Level Minneapolis Center
04:12PM 42.3250 -101.2308 173° South 542 624 41,000  Level Denver Center
04:13PM 42.1814 -101.2053 172° South 544 626 41,000  Level Denver Center
04:14PM 42.0117 -101.1772 173° South 549 632 41,000  Level Denver Center
04:15PM 41.8681 -101.1525 173° South 546 628 41,000  Level Denver Center
04:16PM 41.6992 -101.1258 173° South 546 628 41,000  Level Denver Center
04:17PM 41.5544 -101.1014 173° South 547 629 41,000  Level Denver Center
04:18PM 41.3853 -101.0742 173° South 549 632 41,000  Level Denver Center
04:19PM 41.2425 -101.0514 173° South 543 625 41,000  Level Denver Center
04:20PM 41.0756 -101.0244 173° South 543 625 41,000  Level Denver Center
04:21PM 40.9331 -101.0022 173° South 544 626 41,000  Level Denver Center
04:22PM 40.7692 -100.9897 177° South 538 619 41,000  Level Denver Center
04:23PM 40.6317 -101.0044 185° South 525 604 41,000  Level Denver Center
04:24PM 40.4489 -101.0233 184° South 520 598 41,000  Level Denver Center
04:25PM 40.3117 -101.0381 185° South 517 595 41,000  Level Denver Center
04:26PM 40.1519 -101.0572 185° South 517 595 41,000  Level Denver Center
04:27PM 40.0378 -101.0708 185° South 518 596 41,000  Level Denver Center
04:28PM 39.8561 -101.0897 185° South 513 590 41,000  Level Denver Center
04:29PM 39.7192 -101.1069 186° South 514 592 41,000  Level Denver Center
04:31PM 39.5831 -101.1244 186° South 514 592 41,000  Level Denver Center
04:32PM 39.4228 -101.1417 185° South 516 594 41,000  Level Denver Center
04:33PM 39.2392 -101.1647 186° South 519 597 41,000  Level Denver Center
04:34PM 39.0797 -101.1789 184° South 514 592 41,000  Level Denver Center
04:35PM 38.9361 -101.1850 182° South 520 598 41,000  Level Denver Center
04:36PM 38.7992 -101.1889 181° South 515 593 41,000  Level Denver Center
04:37PM 38.6400 -101.1969 182° South 513 590 41,000  Level Denver Center
04:38PM 38.5033 -101.1958 180° South 514 592 41,000  Level Denver Center
04:39PM 38.3425 -101.1661 172° South 524 603 41,000  Level Denver Center
04:40PM 38.2069 -101.1058 161° South 538 619 41,000  Level Kansas City Center
04:41PM 38.0744 -101.0250 154° Southeast 547 629 41,000  Level Kansas City Center
04:42PM 37.9469 -100.8711 136° Southeast 566 651 41,000  Level Kansas City Center
04:43PM 37.8581 -100.7117 125° Southeast 571 657 41,000  Level Kansas City Center
04:44PM 37.7714 -100.5458 123° Southeast 578 665 41,000  Level Kansas City Center
04:45PM 37.6958 -100.3386 115° Southeast 580 667 41,000  Level Kansas City Center
04:46PM 37.6261 -100.1619 116° Southeast 584 672 41,000  Level Kansas City Center
04:47PM 37.5022 -99.9933 133° Southeast 585 673 41,000  Level Kansas City Center
04:48PM 37.3944 -99.8542 134° Southeast 581 669 41,000  Level Kansas City Center
04:49PM 37.2828 -99.7211 137° Southeast 578 665 41,000  Level Kansas City Center
04:50PM 37.1308 -99.6164 151° Southeast 556 640 41,000  Level Kansas City Center
04:51PM 36.9900 -99.5625 163° South 552 635 41,000  Level Kansas City Center
04:52PM 36.8242 -99.5083 165° South 550 633 41,000  Level Kansas City Center
04:53PM 36.6825 -99.4625 165° South 548 631 41,000  Level Kansas City Center
04:54PM 36.5186 -99.4086 165° South 545 627 41,000  Level Kansas City Center
04:55PM 36.3678 -99.3597 165° South 544 626 41,000  Level Kansas City Center
04:57PM 36.2219 -99.3114 165° South 544 626 41,000  Level Kansas City Center
04:58PM 36.0739 -99.2625 165° South 547 629 41,000  Level Kansas City Center
04:59PM 35.9292 -99.2147 165° South 543 625 41,000  Level Kansas City Center
05:00PM 35.7853 -99.1675 165° South 540 621 41,000  Level Kansas City Center
05:01PM 35.6031 -99.1111 166° South 544 626 41,000  Level Fort Worth Center
05:02PM 35.4578 -99.0650 166° South 544 626 41,000  Level Fort Worth Center
05:03PM 35.3103 -99.0164 165° South 544 626 41,000  Level Fort Worth Center
05:04PM 35.1650 -98.9703 165° South 544 626 41,000  Level Fort Worth Center
05:05PM 35.0217 -98.9219 165° South 544 626 41,000  Level Fort Worth Center
05:06PM 34.8928 -98.8792 165° South 544 626 41,000  Level Fort Worth Center
05:07PM 34.7494 -98.8339 165° South 538 619 41,000  Level Fort Worth Center
05:08PM 34.6039 -98.7936 167° South 527 606 41,000  Level Fort Worth Center
05:09PM 34.4583 -98.7483 166° South 533 613 41,000  Level Fort Worth Center
05:10PM 34.3169 -98.7033 165° South 533 613 41,000  Level Fort Worth Center
05:11PM 34.1733 -98.6586 166° South 528 608 41,000  Level Fort Worth Center
05:12PM 34.0175 -98.6036 164° South 528 608 41,000  Level Fort Worth Center
05:13PM 33.8844 -98.5319 156° South 528 608 41,000  Level Fort Worth Center
05:14PM 33.7494 -98.4553 155° Southeast 528 608 41,000  Level Fort Worth Center
05:15PM 33.6144 -98.3789 155° Southeast 533 613 41,000  Level Fort Worth Center
05:16PM 33.4919 -98.3078 154° Southeast 545 627 41,000  Level Fort Worth Center
05:17PM 33.3442 -98.2217 154° Southeast 545 627 41,000  Level Fort Worth Center
05:18PM 33.2133 -98.1458 154° Southeast 538 619 41,000  Level Fort Worth Center
05:19PM 33.0781 -98.0678 154° Southeast 538 619 41,000  Level Fort Worth Center
05:20PM 32.9406 -97.9928 155° Southeast 538 619 41,000  Level Fort Worth Center
05:21PM 32.8053 -97.9150 154° Southeast 543 625 41,000  Level Fort Worth Center
05:22PM 32.6761 -97.8428 155° Southeast 538 619 41,000  Level Fort Worth Center
05:23PM 32.5553 -97.7733 154° Southeast 533 613 41,000  Level Fort Worth Center
05:24PM 32.4217 -97.6989 155° Southeast 528 608 41,000 -240 Level Fort Worth Center
05:25PM 32.2925 -97.6247 154° Southeast 528 608 40,600 -1,440 Descending Fort Worth Center
05:26PM 32.1631 -97.5533 155° Southeast 522 601 38,200 -2,100 Descending Fort Worth Center
05:27PM 32.0339 -97.4794 154° Southeast 517 595 36,400 -1,140 Descending Fort Worth Center
05:28PM 31.9044 -97.4133 157° South 517 595 36,000 -360 Descending Fort Worth Center
05:29PM 31.7561 -97.3939 174° South 522 601 35,700 -2,340 Descending Fort Worth Center
05:31PM 31.4167 -97.3825 178° South 517 595 28,200 -3,480 Descending Houston Center
05:32PM 31.2458 -97.3772 178° South 521 600 23,900 -3,780 Descending Houston Center
05:33PM 31.1108 -97.3725 178° South 498 573 20,500 -3,180 Descending Houston Center
05:34PM 30.9856 -97.3686 178° South 464 534 17,400 -2,940 Descending Houston Center
05:35PM 30.8661 -97.3653 179° South 443 510 14,500 -3,000 Descending Houston Center
05:36PM 30.7450 -97.4031 195° South 390 449 11,200 -2,100 Descending Houston Center
05:37PM 30.6664 -97.4664 215° Southwest 350 403 10,200 -1,440 Descending Houston Center
05:38PM 30.5997 -97.5208 215° Southwest 302 348 8,300 -1,860 Descending Houston Center
05:39PM 30.5256 -97.5619 206° Southwest 294 338 6,400 -1,740 Descending Houston Center
05:40PM 30.4531 -97.6031 206° Southwest 288 331 4,800 -1,560 Descending Houston Center
05:41PM 30.3831 -97.6364 202° Southwest 277 319 3,200 -1,140 Descending Houston Center
05:42PM 30.3139 -97.6614 197° South 265 305 2,500 -780 Descending Houston Center
05:44PM 30.2578 -97.6589 178° South 191 220 1,600 -660 Descending Houston Center
05:45PM 30.2144 -97.6589 180° South 173 199 1,200 -420 Descending Houston Center